logo
Search for airport 
image banner adimage banner adimage banner ad
image banner ad

OMAG - Kizad

Located in Abu Dhabi, United Arab Emirates

ICAO - , IATA -

Data provided by Airmate  

General information

Coordinates: N24°43'36" E54°49'56"
Elevation is 16 feet MSL.
 
View others Airports in Abu Dhabi Emirate

Operational data

Special qualification required
Current time UTC:
Current local time:
Weather at : OMAA - Abu Dhabi / International ( 37 km )
METAR: OMAA 200800Z 29006KT 250V030 CAVOK 31/12 Q1009 NOSIG
View NOTAMs / SUP AIP / TFR affecting this airport [VIEW]
Communications frequencies: [VIEW]

Runways:

RWY identifierQFULength (ft)Width (ft)SurfaceLDA (ft)
12125°305175UNK
30305°305175UNK

Airport contact information

Address: Abu Dhabi United Arab Emirates

Satellite view of OMAG